Pagrindinis puslapis
METAR-TAF:

METAR-TAF

Oro uostai :

Naval Station Mayport (Adm. David L. McDonald Field)

Mayport, Florida, Jungtinės Amerikos Valstijos

platuma: 30-23-45N, ilguma: 081-25-21W, Aukštis: 5 m

Dabartinis oras

Ataskaita buvo paskelbta 20 minutes, ne 07:52 UTC
Vėjas 7 kt iš Vakarų/Šiaurės Vakarų
Temperatūra 16°C
Drėgmė 59%
Slėgis 1018 hPa
Matomumas: 16.1 km
Giedras dangus

METAR: KNRB 080752Z AUTO 30007KT 10SM CLR 16/08 A3007 RMK AO2 SLP183 T01610078

Laikas: 04:12 (08:12 UTC)

Prognozė

Prognozė galioja nuo 07 metu 15 UTC su 08 metu 15 UTC
Vėjas 16 kt iš Šiaurės Vakarų su gūsio iki 24 kt
Matomumas 10 km arba daugiau
Giedras dangus
Nuo 08 metu 0100 UTC
Vėjas 10 kt iš Šiaurės/Šiaurės Vakarų
Matomumas 10 km arba daugiau
Giedras dangus
Nuo 08 metu 1500 UTC
Vėjas 8 kt iš Rytų/Šiaurės Rytų
Matomumas: 1009 m
Giedras dangus

TAF: KNRB 0715/0815 32016G24KT 9999 SKC QNH2995INS FM080100 34010KT 9999 SKC QNH3000INS FM081500 07008KT 9999 SKC QNH3010INS LAST NO AMDS AFT 0722 NEXT 1007 AUTOMATED SENSOR METWATCH 0722 TIL 1009 T27/0720Z T15/0810Z FN20021

Orai ataskaitas ir orų prognozės (METAR, TAF).

turimą stotys yra geltonos ir raudonos taškus žemėlapyje.

Perkelti pele per norėdami pamatyti stoties vardą.

Tada spustelėkite, norėdami matyti oro stebėjimo ir prognozės.

Norėdami pakeisti žemėlapį: spustelėkite ant žalios mygtukų su juodo kryžiaus žemyn,; žalią mygtuką su brūkšneliu, jei norite nutolinti; arba žalių rodyklių gretimoms žemėlapius.


METAR-TAF: